Terminal Aerodrome Forecast
Issued by NWS Grand Forks, ND

Home | Current Version | Previous Version | Text Only | Print | Product List | Glossary Off
Versions: 1 2 3 4 5 6 7 8 9 10 11 12 13 14 15

899
FTUS43 KFGF 221422 AAA
TAFGFK
TAF AMD
KGFK 221422Z 2214/2312 17018G27KT P6SM BKN060
     FM230100 17014KT P6SM BKN045
     FM230500 17010KT P6SM VCTS BKN040CB=

USA.gov is the U.S. government's official web portal to all federal, state and local government web resources and services.